Autopride — CQQE — position and weather

sailwx.info

Track history (hours):
 
Tides and Currents Weather Stations Pressure Air Temp Water Temp Dewpoint Dewpoint Depression Visibility Wind Speed Wind Dir Waves Ship Positions

Autopride

Last reported at 2017-Feb-24 05:33 UTC. Time now 2017-Feb-24 05:56 UTC.
Position N 59°53' E 010°46'.

Length 125 m; draft 4.9 m.

Type: Cargo ship. MMSI: 255801560.

Date/timePositionNaut miles runAvg speedWind from/ knotsBaromVisibWave heightAir tempDewpointWater temp
2017-Feb-24 05:33N 59°53' E 010°46'0 0.0
2017-Feb-24 04:33N 59°53' E 010°46'0 0.0
2017-Feb-24 03:33N 59°53' E 010°46'0 0.0
2017-Feb-24 02:33N 59°53' E 010°46'4 4.1
2017-Feb-24 01:33N 59°52' E 010°38'1413.7
2017-Feb-24 00:33N 59°38' E 010°37'9 8.7
2017-Feb-23 23:33N 59°33' E 010°24'1110.9
2017-Feb-23 22:34N 59°43' E 010°18'2 2.1
2017-Feb-23 21:33N 59°44' E 010°14'0 0.0
2017-Feb-23 20:33N 59°44' E 010°14'0 0.0
2017-Feb-23 19:33N 59°44' E 010°14'0 0.0
2017-Feb-23 18:33N 59°44' E 010°14'0 0.0
2017-Feb-23 17:33N 59°44' E 010°14'3 2.7
2017-Feb-23 16:33N 59°43' E 010°19'1111.1
2017-Feb-23 15:34N 59°32' E 010°24'1615.9
2017-Feb-23 14:33N 59°17' E 010°37'1615.8
2017-Feb-23 13:33N 59°02' E 010°34'1616.4
2017-Feb-23 12:33N 58°48' E 010°17'1716.9
2017-Feb-23 11:32N 58°33' E 009°59'19016.9
2017-Feb-23 00:16N 55°42' E 007°25'1216.0
2017-Feb-22 23:32N 55°31' E 007°22'1414.8
2017-Feb-22 22:33N 55°16' E 007°24'1515.4
2017-Feb-22 21:33N 55°01' E 007°26'1615.5
2017-Feb-22 20:33N 54°46' E 007°28'5315.7
2017-Feb-22 17:12N 53°54' E 007°45'1014.9
2017-Feb-22 16:33N 53°51' E 008°01'1313.4
2017-Feb-22 15:33N 53°43' E 008°19'1312.8
2017-Feb-22 14:33N 53°33' E 008°34'1 0.6
2017-Feb-22 13:33N 53°34' E 008°34'0 0.0
2017-Feb-22 12:32N 53°34' E 008°34'0 0.0
2017-Feb-22 11:32N 53°34' E 008°34'0 0.0
2017-Feb-22 10:32N 53°34' E 008°34'0 0.0
2017-Feb-22 09:32N 53°34' E 008°34'0 0.0
2017-Feb-22 08:32N 53°34' E 008°34'0 0.0
2017-Feb-22 07:32N 53°34' E 008°34'0 0.0
2017-Feb-22 06:32N 53°34' E 008°34'0 0.0
2017-Feb-22 05:32N 53°34' E 008°34'0 0.0
2017-Feb-22 04:32N 53°34' E 008°34'0 0.0
2017-Feb-22 03:32N 53°34' E 008°34'0 0.0
2017-Feb-22 02:32N 53°34' E 008°34'0 0.0
2017-Feb-22 01:32N 53°34' E 008°34'0 0.0
2017-Feb-22 00:32N 53°34' E 008°34'0 0.0
2017-Feb-21 23:29N 53°34' E 008°34'0 0.0
2017-Feb-21 22:32N 53°34' E 008°34'0 0.0
2017-Feb-21 21:33N 53°34' E 008°34'1 0.8
2017-Feb-21 20:33N 53°33' E 008°33'1414.5
2017-Feb-21 19:33N 53°44' E 008°16'1717.2
2017-Feb-21 18:33N 53°52' E 007°51'2216.6
2017-Feb-21 17:13N 54°10' E 007°27'3215.3
2017-Feb-21 15:07N 54°42' E 007°26'814.2
2017-Feb-21 14:34N 54°50' E 007°25'1414.0
2017-Feb-21 13:33N 55°04' E 007°24'1413.6
2017-Feb-21 12:33N 55°17' E 007°24'1313.2
2017-Feb-21 11:34N 55°30' E 007°23'1413.1
2017-Feb-21 10:28N 55°45' E 007°26'1213.3
2017-Feb-21 09:33N 55°56' E 007°32'17112.2
2017-Feb-20 19:33N 58°28' E 009°58'1413.7
2017-Feb-20 18:33N 58°39' E 010°13'1413.6
2017-Feb-20 17:33N 58°51' E 010°25'1313.3
2017-Feb-20 16:34N 59°03' E 010°34'1413.9
2017-Feb-20 15:33N 59°17' E 010°36'1817.6
2017-Feb-20 14:34N 59°35' E 010°38'1515.3
2017-Feb-20 13:33N 59°50' E 010°36'6 5.8
2017-Feb-20 12:32N 59°53' E 010°46'0 0.0
2017-Feb-20 11:32N 59°53' E 010°46'0 0.0
2017-Feb-20 10:32N 59°53' E 010°46'0 0.0
2017-Feb-20 09:32N 59°53' E 010°46'0 0.0
2017-Feb-20 08:32N 59°53' E 010°46'0 0.0
2017-Feb-20 07:32N 59°53' E 010°46'0 0.0
2017-Feb-20 06:32N 59°53' E 010°46'0 0.0
2017-Feb-20 05:33N 59°53' E 010°46'4 3.8
2017-Feb-20 04:33N 59°52' E 010°39'1413.6
2017-Feb-20 03:33N 59°39' E 010°38'1615.9
2017-Feb-20 02:33N 59°23' E 010°35'1817.7
2017-Feb-20 01:34N 59°05' E 010°36'1211.5
2017-Feb-20 00:33N 58°55' E 010°26'1212.5
2017-Feb-19 23:34N 58°44' E 010°13'1212.3
2017-Feb-19 22:34N 58°34' E 009°60'18612.4
2017-Feb-19 07:31N 55°47' E 007°27'1414.0
2017-Feb-19 06:33N 55°34' E 007°21'1414.0
2017-Feb-19 05:33N 55°20' E 007°23'1413.8
2017-Feb-19 04:33N 55°06' E 007°25'1413.6
2017-Feb-19 03:34N 54°53' E 007°27'1313.3
2017-Feb-19 02:33N 54°39' E 007°28'1313.2
2017-Feb-19 01:33N 54°26' E 007°30'2612.7
2017-Feb-18 23:32N 54°01' E 007°39'1111.6
2017-Feb-18 22:33N 53°53' E 007°52'1615.7
2017-Feb-18 21:33N 53°44' E 008°14'1615.8
2017-Feb-18 20:33N 53°33' E 008°33'1 0.4
2017-Feb-18 18:33N 53°34' E 008°34'0 0.0
2017-Feb-18 17:33N 53°34' E 008°34'0 0.0
2017-Feb-18 16:33N 53°34' E 008°34'0 0.0
2017-Feb-18 15:33N 53°34' E 008°34'0 0.0
2017-Feb-18 14:33N 53°34' E 008°34'0 0.0
2017-Feb-18 13:33N 53°34' E 008°34'0 0.0
2017-Feb-18 12:33N 53°34' E 008°34'0 0.0
2017-Feb-18 11:33N 53°34' E 008°34'0 0.0
2017-Feb-18 10:33N 53°34' E 008°34'0 0.0
2017-Feb-18 09:33N 53°34' E 008°34'0 0.0
2017-Feb-18 08:33N 53°34' E 008°34'0 0.0
2017-Feb-18 07:33N 53°34' E 008°34'0 0.0
2017-Feb-18 06:33N 53°34' E 008°34'0 0.0
2017-Feb-18 05:33N 53°34' E 008°34'0 0.1
2017-Feb-18 04:33N 53°34' E 008°34'1 0.7
2017-Feb-18 03:34N 53°33' E 008°33'1313.1
2017-Feb-18 02:34N 53°43' E 008°18'1817.6
2017-Feb-18 01:33N 53°52' E 007°52'1110.4
2017-Feb-18 00:32N 53°58' E 007°37'2711.7
2017-Feb-17 22:13N 54°24' E 007°26'2213.2
2017-Feb-17 20:33N 54°46' E 007°25'1313.1
2017-Feb-17 19:34N 54°59' E 007°24'1313.1
2017-Feb-17 18:34N 55°12' E 007°24'1312.8
2017-Feb-17 17:32N 55°25' E 007°22'1312.8
2017-Feb-17 16:30N 55°38' E 007°22'1313.3
2017-Feb-17 15:33N 55°50' E 007°29'1110.8
2017-Feb-17 14:33N 56°01' E 007°34'17312.3
2017-Feb-17 00:33N 58°33' E 010°05'1413.8
2017-Feb-16 23:34N 58°44' E 010°20'1413.6
2017-Feb-16 22:33N 58°57' E 010°30'1313.1
2017-Feb-16 21:34N 59°09' E 010°36'1818.0
2017-Feb-16 20:34N 59°27' E 010°31'1312.7
2017-Feb-16 19:33N 59°39' E 010°24'7 6.6
2017-Feb-16 18:31N 59°44' E 010°14'0 0.0
2017-Feb-16 17:31N 59°44' E 010°14'0 0.0
2017-Feb-16 16:31N 59°44' E 010°14'0 0.0
2017-Feb-16 15:31N 59°44' E 010°14'0 0.4
2017-Feb-16 14:33N 59°44' E 010°15'1111.5
2017-Feb-16 13:33N 59°34' E 010°25'9 8.5
2017-Feb-16 12:33N 59°39' E 010°37'1413.5
2017-Feb-16 11:33N 59°53' E 010°40'3 2.8
2017-Feb-16 10:32N 59°53' E 010°46'0 0.0
2017-Feb-16 09:32N 59°53' E 010°46'0 0.0
2017-Feb-16 08:32N 59°53' E 010°46'0 0.0
2017-Feb-16 07:32N 59°53' E 010°46'0 0.0
2017-Feb-16 06:32N 59°53' E 010°46'0 0.0
2017-Feb-16 05:32N 59°53' E 010°46'0 0.2
2017-Feb-16 04:33N 59°53' E 010°46'1010.3
2017-Feb-16 03:33N 59°44' E 010°35'1313.2
2017-Feb-16 02:33N 59°31' E 010°36'1818.1
2017-Feb-16 01:33N 59°13' E 010°38'1616.1
2017-Feb-16 00:34N 58°58' E 010°30'1817.7
2017-Feb-15 23:33N 58°43' E 010°11'1717.6
2017-Feb-15 22:34N 58°28' E 009°52'1817.7
2017-Feb-15 21:33N 58°13' E 009°34'1817.9
2017-Feb-15 20:33N 57°59' E 009°15'1918.7
2017-Feb-15 19:33N 57°43' E 008°55'2118.2
2017-Feb-15 18:23N 57°25' E 008°35'7118.5
2017-Feb-15 14:32N 56°19' E 007°44'1818.3
2017-Feb-15 13:33N 56°02' E 007°35'1817.9
2017-Feb-15 12:34N 55°45' E 007°26'1717.3
2017-Feb-15 11:33N 55°28' E 007°22'1717.4
2017-Feb-15 10:34N 55°11' E 007°25'1717.4
2017-Feb-15 09:34N 54°53' E 007°27'1817.5
2017-Feb-15 08:33N 54°36' E 007°29'3617.2
2017-Feb-15 06:26N 53°60' E 007°39'1415.8
2017-Feb-15 05:33N 53°51' E 007°58'2020.0
2017-Feb-15 04:33N 53°39' E 008°25'8 7.5
2017-Feb-15 03:32N 53°34' E 008°34'0 0.5
2017-Feb-15 02:31N 53°34' E 008°34'0 0.0
2017-Feb-15 01:31N 53°34' E 008°34'0 0.0
2017-Feb-15 00:31N 53°34' E 008°34'0 0.0
2017-Feb-14 23:31N 53°34' E 008°34'0 0.0
2017-Feb-14 22:31N 53°34' E 008°34'0 0.0
2017-Feb-14 21:31N 53°34' E 008°34'1 0.7
2017-Feb-14 20:32N 53°35' E 008°34'0 0.0
2017-Feb-14 19:32N 53°35' E 008°34'0 0.0
2017-Feb-14 18:32N 53°35' E 008°34'0 0.0
2017-Feb-14 17:32N 53°35' E 008°34'0 0.0
2017-Feb-14 16:33N 53°35' E 008°34'0 0.3
2017-Feb-14 15:33N 53°34' E 008°33'5 4.8
2017-Feb-14 14:33N 53°38' E 008°27'1615.7
2017-Feb-14 13:33N 53°48' E 008°07'1515.0
2017-Feb-14 12:33N 53°54' E 007°44'1312.7
2017-Feb-14 11:33N 54°04' E 007°32'1312.9
2017-Feb-14 10:33N 54°17' E 007°26'1313.6
2017-Feb-14 09:33N 54°30' E 007°26'1616.4
2017-Feb-14 08:33N 54°47' E 007°25'1817.8
2017-Feb-14 07:33N 55°04' E 007°24'1817.5
2017-Feb-14 06:32N 55°22' E 007°22'1717.2
2017-Feb-14 05:33N 55°39' E 007°24'  
Track history (hours):
 
Tides and Currents Weather Stations Pressure Air Temp Water Temp Dewpoint Dewpoint Depression Visibility Wind Speed Wind Dir Waves Ship Positions

Autopride

Last reported at 2017-Feb-24 05:33 UTC. Time now 2017-Feb-24 05:56 UTC.
Position N 59°53' E 010°46'.

Length 125 m; draft 4.9 m.

Type: Cargo ship. MMSI: 255801560.

Date/timePositionNaut miles runAvg speedWind from/ knotsBaromVisibWave heightAir tempDewpointWater temp
2017-Feb-24 05:33N 59°53' E 010°46'0 0.0
2017-Feb-24 04:33N 59°53' E 010°46'0 0.0
2017-Feb-24 03:33N 59°53' E 010°46'0 0.0
2017-Feb-24 02:33N 59°53' E 010°46'4 4.1
2017-Feb-24 01:33N 59°52' E 010°38'1413.7
2017-Feb-24 00:33N 59°38' E 010°37'9 8.7
2017-Feb-23 23:33N 59°33' E 010°24'1110.9
2017-Feb-23 22:34N 59°43' E 010°18'2 2.1
2017-Feb-23 21:33N 59°44' E 010°14'0 0.0
2017-Feb-23 20:33N 59°44' E 010°14'0 0.0
2017-Feb-23 19:33N 59°44' E 010°14'0 0.0
2017-Feb-23 18:33N 59°44' E 010°14'0 0.0
2017-Feb-23 17:33N 59°44' E 010°14'3 2.7
2017-Feb-23 16:33N 59°43' E 010°19'1111.1
2017-Feb-23 15:34N 59°32' E 010°24'1615.9
2017-Feb-23 14:33N 59°17' E 010°37'1615.8
2017-Feb-23 13:33N 59°02' E 010°34'1616.4
2017-Feb-23 12:33N 58°48' E 010°17'1716.9
2017-Feb-23 11:32N 58°33' E 009°59'19016.9
2017-Feb-23 00:16N 55°42' E 007°25'1216.0
2017-Feb-22 23:32N 55°31' E 007°22'1414.8
2017-Feb-22 22:33N 55°16' E 007°24'1515.4
2017-Feb-22 21:33N 55°01' E 007°26'1615.5
2017-Feb-22 20:33N 54°46' E 007°28'5315.7
2017-Feb-22 17:12N 53°54' E 007°45'1014.9
2017-Feb-22 16:33N 53°51' E 008°01'1313.4
2017-Feb-22 15:33N 53°43' E 008°19'1312.8
2017-Feb-22 14:33N 53°33' E 008°34'1 0.6
2017-Feb-22 13:33N 53°34' E 008°34'0 0.0
2017-Feb-22 12:32N 53°34' E 008°34'0 0.0
2017-Feb-22 11:32N 53°34' E 008°34'0 0.0
2017-Feb-22 10:32N 53°34' E 008°34'0 0.0
2017-Feb-22 09:32N 53°34' E 008°34'0 0.0
2017-Feb-22 08:32N 53°34' E 008°34'0 0.0
2017-Feb-22 07:32N 53°34' E 008°34'0 0.0
2017-Feb-22 06:32N 53°34' E 008°34'0 0.0
2017-Feb-22 05:32N 53°34' E 008°34'0 0.0
2017-Feb-22 04:32N 53°34' E 008°34'0 0.0
2017-Feb-22 03:32N 53°34' E 008°34'0 0.0
2017-Feb-22 02:32N 53°34' E 008°34'0 0.0
2017-Feb-22 01:32N 53°34' E 008°34'0 0.0
2017-Feb-22 00:32N 53°34' E 008°34'0 0.0
2017-Feb-21 23:29N 53°34' E 008°34'0 0.0
2017-Feb-21 22:32N 53°34' E 008°34'0 0.0
2017-Feb-21 21:33N 53°34' E 008°34'1 0.8
2017-Feb-21 20:33N 53°33' E 008°33'1414.5
2017-Feb-21 19:33N 53°44' E 008°16'1717.2
2017-Feb-21 18:33N 53°52' E 007°51'2216.6
2017-Feb-21 17:13N 54°10' E 007°27'3215.3
2017-Feb-21 15:07N 54°42' E 007°26'814.2
2017-Feb-21 14:34N 54°50' E 007°25'1414.0
2017-Feb-21 13:33N 55°04' E 007°24'1413.6
2017-Feb-21 12:33N 55°17' E 007°24'1313.2
2017-Feb-21 11:34N 55°30' E 007°23'1413.1
2017-Feb-21 10:28N 55°45' E 007°26'1213.3
2017-Feb-21 09:33N 55°56' E 007°32'17112.2
2017-Feb-20 19:33N 58°28' E 009°58'1413.7
2017-Feb-20 18:33N 58°39' E 010°13'1413.6
2017-Feb-20 17:33N 58°51' E 010°25'1313.3
2017-Feb-20 16:34N 59°03' E 010°34'1413.9
2017-Feb-20 15:33N 59°17' E 010°36'1817.6
2017-Feb-20 14:34N 59°35' E 010°38'1515.3
2017-Feb-20 13:33N 59°50' E 010°36'6 5.8
2017-Feb-20 12:32N 59°53' E 010°46'0 0.0
2017-Feb-20 11:32N 59°53' E 010°46'0 0.0
2017-Feb-20 10:32N 59°53' E 010°46'0 0.0
2017-Feb-20 09:32N 59°53' E 010°46'0 0.0
2017-Feb-20 08:32N 59°53' E 010°46'0 0.0
2017-Feb-20 07:32N 59°53' E 010°46'0 0.0
2017-Feb-20 06:32N 59°53' E 010°46'0 0.0
2017-Feb-20 05:33N 59°53' E 010°46'4 3.8
2017-Feb-20 04:33N 59°52' E 010°39'1413.6
2017-Feb-20 03:33N 59°39' E 010°38'1615.9
2017-Feb-20 02:33N 59°23' E 010°35'1817.7
2017-Feb-20 01:34N 59°05' E 010°36'1211.5
2017-Feb-20 00:33N 58°55' E 010°26'1212.5
2017-Feb-19 23:34N 58°44' E 010°13'1212.3
2017-Feb-19 22:34N 58°34' E 009°60'18612.4
2017-Feb-19 07:31N 55°47' E 007°27'1414.0
2017-Feb-19 06:33N 55°34' E 007°21'1414.0
2017-Feb-19 05:33N 55°20' E 007°23'1413.8
2017-Feb-19 04:33N 55°06' E 007°25'1413.6
2017-Feb-19 03:34N 54°53' E 007°27'1313.3
2017-Feb-19 02:33N 54°39' E 007°28'1313.2
2017-Feb-19 01:33N 54°26' E 007°30'2612.7
2017-Feb-18 23:32N 54°01' E 007°39'1111.6
2017-Feb-18 22:33N 53°53' E 007°52'1615.7
2017-Feb-18 21:33N 53°44' E 008°14'1615.8
2017-Feb-18 20:33N 53°33' E 008°33'1 0.4
2017-Feb-18 18:33N 53°34' E 008°34'0 0.0
2017-Feb-18 17:33N 53°34' E 008°34'0 0.0
2017-Feb-18 16:33N 53°34' E 008°34'0 0.0
2017-Feb-18 15:33N 53°34' E 008°34'0 0.0
2017-Feb-18 14:33N 53°34' E 008°34'0 0.0
2017-Feb-18 13:33N 53°34' E 008°34'0 0.0
2017-Feb-18 12:33N 53°34' E 008°34'0 0.0
2017-Feb-18 11:33N 53°34' E 008°34'0 0.0
2017-Feb-18 10:33N 53°34' E 008°34'0 0.0
2017-Feb-18 09:33N 53°34' E 008°34'0 0.0
2017-Feb-18 08:33N 53°34' E 008°34'0 0.0
2017-Feb-18 07:33N 53°34' E 008°34'0 0.0
2017-Feb-18 06:33N 53°34' E 008°34'0 0.0
2017-Feb-18 05:33N 53°34' E 008°34'0 0.1
2017-Feb-18 04:33N 53°34' E 008°34'1 0.7
2017-Feb-18 03:34N 53°33' E 008°33'1313.1
2017-Feb-18 02:34N 53°43' E 008°18'1817.6
2017-Feb-18 01:33N 53°52' E 007°52'1110.4
2017-Feb-18 00:32N 53°58' E 007°37'2711.7
2017-Feb-17 22:13N 54°24' E 007°26'2213.2
2017-Feb-17 20:33N 54°46' E 007°25'1313.1
2017-Feb-17 19:34N 54°59' E 007°24'1313.1
2017-Feb-17 18:34N 55°12' E 007°24'1312.8
2017-Feb-17 17:32N 55°25' E 007°22'1312.8
2017-Feb-17 16:30N 55°38' E 007°22'1313.3
2017-Feb-17 15:33N 55°50' E 007°29'1110.8
2017-Feb-17 14:33N 56°01' E 007°34'17312.3
2017-Feb-17 00:33N 58°33' E 010°05'1413.8
2017-Feb-16 23:34N 58°44' E 010°20'1413.6
2017-Feb-16 22:33N 58°57' E 010°30'1313.1
2017-Feb-16 21:34N 59°09' E 010°36'1818.0
2017-Feb-16 20:34N 59°27' E 010°31'1312.7
2017-Feb-16 19:33N 59°39' E 010°24'7 6.6
2017-Feb-16 18:31N 59°44' E 010°14'0 0.0
2017-Feb-16 17:31N 59°44' E 010°14'0 0.0
2017-Feb-16 16:31N 59°44' E 010°14'0 0.0
2017-Feb-16 15:31N 59°44' E 010°14'0 0.4
2017-Feb-16 14:33N 59°44' E 010°15'1111.5
2017-Feb-16 13:33N 59°34' E 010°25'9 8.5
2017-Feb-16 12:33N 59°39' E 010°37'1413.5
2017-Feb-16 11:33N 59°53' E 010°40'3 2.8
2017-Feb-16 10:32N 59°53' E 010°46'0 0.0
2017-Feb-16 09:32N 59°53' E 010°46'0 0.0
2017-Feb-16 08:32N 59°53' E 010°46'0 0.0
2017-Feb-16 07:32N 59°53' E 010°46'0 0.0
2017-Feb-16 06:32N 59°53' E 010°46'0 0.0
2017-Feb-16 05:32N 59°53' E 010°46'0 0.2
2017-Feb-16 04:33N 59°53' E 010°46'1010.3
2017-Feb-16 03:33N 59°44' E 010°35'1313.2
2017-Feb-16 02:33N 59°31' E 010°36'1818.1
2017-Feb-16 01:33N 59°13' E 010°38'1616.1
2017-Feb-16 00:34N 58°58' E 010°30'1817.7
2017-Feb-15 23:33N 58°43' E 010°11'1717.6
2017-Feb-15 22:34N 58°28' E 009°52'1817.7
2017-Feb-15 21:33N 58°13' E 009°34'1817.9
2017-Feb-15 20:33N 57°59' E 009°15'1918.7
2017-Feb-15 19:33N 57°43' E 008°55'2118.2
2017-Feb-15 18:23N 57°25' E 008°35'7118.5
2017-Feb-15 14:32N 56°19' E 007°44'1818.3
2017-Feb-15 13:33N 56°02' E 007°35'1817.9
2017-Feb-15 12:34N 55°45' E 007°26'1717.3
2017-Feb-15 11:33N 55°28' E 007°22'1717.4
2017-Feb-15 10:34N 55°11' E 007°25'1717.4
2017-Feb-15 09:34N 54°53' E 007°27'1817.5
2017-Feb-15 08:33N 54°36' E 007°29'3617.2
2017-Feb-15 06:26N 53°60' E 007°39'1415.8
2017-Feb-15 05:33N 53°51' E 007°58'2020.0
2017-Feb-15 04:33N 53°39' E 008°25'8 7.5
2017-Feb-15 03:32N 53°34' E 008°34'0 0.5
2017-Feb-15 02:31N 53°34' E 008°34'0 0.0
2017-Feb-15 01:31N 53°34' E 008°34'0 0.0
2017-Feb-15 00:31N 53°34' E 008°34'0 0.0
2017-Feb-14 23:31N 53°34' E 008°34'0 0.0
2017-Feb-14 22:31N 53°34' E 008°34'0 0.0
2017-Feb-14 21:31N 53°34' E 008°34'1 0.7
2017-Feb-14 20:32N 53°35' E 008°34'0 0.0
2017-Feb-14 19:32N 53°35' E 008°34'0 0.0
2017-Feb-14 18:32N 53°35' E 008°34'0 0.0
2017-Feb-14 17:32N 53°35' E 008°34'0 0.0
2017-Feb-14 16:33N 53°35' E 008°34'0 0.3
2017-Feb-14 15:33N 53°34' E 008°33'5 4.8
2017-Feb-14 14:33N 53°38' E 008°27'1615.7
2017-Feb-14 13:33N 53°48' E 008°07'1515.0
2017-Feb-14 12:33N 53°54' E 007°44'1312.7
2017-Feb-14 11:33N 54°04' E 007°32'1312.9
2017-Feb-14 10:33N 54°17' E 007°26'1313.6
2017-Feb-14 09:33N 54°30' E 007°26'1616.4
2017-Feb-14 08:33N 54°47' E 007°25'1817.8
2017-Feb-14 07:33N 55°04' E 007°24'1817.5
2017-Feb-14 06:32N 55°22' E 007°22'1717.2
2017-Feb-14 05:33N 55°39' E 007°24'  

Dump ship's entire track history